createdAt,value
2023-04-01T00:01:17.790Z,71.75
2023-04-01T00:03:47.105Z,71.46
2023-04-01T00:06:18.245Z,71.52
2023-04-01T00:08:47.542Z,71.62
2023-04-01T00:11:17.000Z,71.57
2023-04-01T00:13:45.965Z,71.45
2023-04-01T00:16:21.740Z,71.22
2023-04-01T00:18:52.132Z,71.09
2023-04-01T00:21:21.841Z,71.21
2023-04-01T00:23:51.838Z,71.12
2023-04-01T00:26:22.296Z,71.21
2023-04-01T00:28:51.281Z,71.40
2023-04-01T00:31:19.934Z,71.71
2023-04-01T00:33:48.468Z,71.62
2023-04-01T00:36:22.910Z,71.99
2023-04-01T00:38:51.790Z,72.13
2023-04-01T00:41:22.296Z,72.33
2023-04-01T00:43:52.424Z,72.75
2023-04-01T00:46:21.367Z,72.86
2023-04-01T00:48:54.025Z,73.36
2023-04-01T00:51:28.641Z,73.56
2023-04-01T00:53:59.297Z,74.09
2023-04-01T00:56:34.014Z,74.54
2023-04-01T00:59:14.077Z,75.32
2023-04-01T01:01:42.914Z,76.07
2023-04-01T01:04:33.557Z,75.29
2023-04-01T01:07:04.800Z,75.12
2023-04-01T01:09:59.690Z,75.25
2023-04-01T01:12:41.290Z,75.35
2023-04-01T01:15:28.226Z,75.50
2023-04-01T01:18:03.076Z,75.43
2023-04-01T01:21:21.342Z,75.43
2023-04-01T01:24:14.805Z,75.10
2023-04-01T01:26:50.144Z,74.97
2023-04-01T01:29:52.197Z,75.06
2023-04-01T01:32:40.705Z,75.30
2023-04-01T01:35:55.207Z,75.30
2023-04-01T01:38:28.257Z,75.39
2023-04-01T01:41:03.916Z,75.27
2023-04-01T01:43:37.904Z,74.81
2023-04-01T01:46:15.361Z,74.72
2023-04-01T01:48:46.782Z,74.72
2023-04-01T01:51:15.866Z,74.33
2023-04-01T01:53:44.559Z,74.22
2023-04-01T01:56:16.818Z,74.39
2023-04-01T01:58:51.364Z,74.35
2023-04-01T02:01:27.723Z,73.95
2023-04-01T02:03:59.720Z,73.57
2023-04-01T02:06:31.868Z,73.32
2023-04-01T02:09:04.862Z,73.41
2023-04-01T02:11:43.920Z,73.60
2023-04-01T02:14:17.790Z,73.43
2023-04-01T02:17:01.321Z,73.77
2023-04-01T02:19:41.782Z,73.98
2023-04-01T02:22:15.655Z,74.03
2023-04-01T02:24:46.532Z,74.08
2023-04-01T02:27:15.397Z,74.22
2023-04-01T02:29:44.121Z,74.23
2023-04-01T02:32:14.718Z,74.30
2023-04-01T02:34:44.420Z,74.27
2023-04-01T02:37:13.966Z,74.21
2023-04-01T02:39:43.858Z,74.44
2023-04-01T02:42:12.279Z,74.81
2023-04-01T02:44:41.696Z,75.20
2023-04-01T02:47:10.724Z,75.18
2023-04-01T02:49:39.391Z,75.30
2023-04-01T02:52:08.682Z,75.73
2023-04-01T02:54:37.274Z,75.75
2023-04-01T02:57:05.900Z,75.95
2023-04-01T02:59:34.351Z,75.95
2023-04-01T03:02:02.764Z,76.13
2023-04-01T03:04:31.232Z,76.13
2023-04-01T03:06:59.617Z,76.19
2023-04-01T03:09:28.098Z,75.94
2023-04-01T03:11:56.989Z,76.34
2023-04-01T03:14:25.884Z,76.33
2023-04-01T03:16:54.353Z,76.23
2023-04-01T03:19:22.857Z,76.01
2023-04-01T03:21:51.249Z,76.01
2023-04-01T03:24:19.554Z,76.03
2023-04-01T03:26:49.750Z,76.04
2023-04-01T03:29:18.341Z,75.92
2023-04-01T03:31:46.731Z,75.81
2023-04-01T03:34:15.213Z,75.42
2023-04-01T03:36:44.583Z,75.46
2023-04-01T03:39:14.030Z,75.12
2023-04-01T03:41:43.023Z,75.20
2023-04-01T03:44:12.024Z,75.24
2023-04-01T03:46:42.576Z,75.18
2023-04-01T03:49:12.821Z,75.52
2023-04-01T03:51:45.275Z,75.04
2023-04-01T03:54:13.545Z,74.69
2023-04-01T03:56:42.440Z,74.61
2023-04-01T03:59:10.726Z,74.70
2023-04-01T04:01:40.045Z,74.79
2023-04-01T04:04:08.864Z,74.98
2023-04-01T04:06:37.312Z,74.93
2023-04-01T04:09:05.901Z,75.08
2023-04-01T04:11:34.900Z,75.09
2023-04-01T04:14:04.921Z,75.16
2023-04-01T04:16:37.706Z,75.37
2023-04-01T04:19:07.020Z,75.19
2023-04-01T04:21:35.607Z,75.16
2023-04-01T04:24:04.610Z,75.42
2023-04-01T04:26:50.479Z,75.53
2023-04-01T04:29:18.660Z,75.41
2023-04-01T04:31:47.281Z,75.79
2023-04-01T04:34:16.147Z,76.20
2023-04-01T04:36:44.642Z,76.65
2023-04-01T04:39:13.633Z,76.96
2023-04-01T04:41:49.601Z,76.85
2023-04-01T04:44:37.330Z,77.20
2023-04-01T04:47:06.263Z,77.60
2023-04-01T04:49:34.705Z,78.28
2023-04-01T04:52:07.279Z,78.77
2023-04-01T04:54:36.080Z,79.57
2023-04-01T04:57:06.329Z,79.40
2023-04-01T04:59:39.435Z,79.79
2023-04-01T05:02:13.234Z,80.13
2023-04-01T05:04:42.101Z,79.73
2023-04-01T05:07:12.128Z,80.15
2023-04-01T05:09:41.014Z,80.35
2023-04-01T05:12:10.311Z,79.94
2023-04-01T05:14:56.100Z,79.94
2023-04-01T05:17:24.616Z,79.85
2023-04-01T05:19:53.069Z,79.75
2023-04-01T05:22:22.174Z,79.21
2023-04-01T05:24:50.563Z,79.17
2023-04-01T05:27:19.463Z,79.32
2023-04-01T05:29:50.309Z,79.15
2023-04-01T05:32:42.492Z,79.02
2023-04-01T05:35:12.300Z,78.63
2023-04-01T05:37:41.848Z,78.43
2023-04-01T05:40:10.873Z,78.38
2023-04-01T05:42:39.448Z,77.98
2023-04-01T05:45:09.947Z,78.04
2023-04-01T05:47:57.775Z,77.69
2023-04-01T05:50:26.294Z,77.82
2023-04-01T05:52:55.107Z,77.75
2023-04-01T05:55:24.234Z,77.73
2023-04-01T05:57:53.194Z,77.61
2023-04-01T06:00:22.278Z,77.79
2023-04-01T06:02:53.406Z,77.65
2023-04-01T06:05:26.381Z,77.61
2023-04-01T06:08:00.868Z,77.57
2023-04-01T06:10:45.215Z,77.71
2023-04-01T06:13:52.872Z,77.50
2023-04-01T06:16:56.799Z,77.62
2023-04-01T06:19:41.322Z,77.93
2023-04-01T06:22:34.673Z,78.34
2023-04-01T06:25:32.173Z,78.36
2023-04-01T06:28:40.205Z,78.05
2023-04-01T06:31:21.433Z,77.87
2023-04-01T06:33:57.864Z,77.63
2023-04-01T06:36:26.926Z,77.54
2023-04-01T06:39:19.407Z,76.97
2023-04-01T06:41:57.196Z,76.48
2023-04-01T06:44:45.532Z,75.95
2023-04-01T06:48:10.974Z,75.75
2023-04-01T06:51:24.015Z,75.45
2023-04-01T06:54:26.434Z,75.55
2023-04-01T06:57:44.436Z,75.44
2023-04-01T07:00:20.354Z,75.11
2023-04-01T07:02:59.961Z,73.90
2023-04-01T07:05:32.750Z,73.81
2023-04-01T07:08:06.374Z,73.44
2023-04-01T07:10:58.594Z,73.07
2023-04-01T07:14:05.062Z,73.17
2023-04-01T07:16:39.912Z,73.18
2023-04-01T07:19:42.757Z,72.97
2023-04-01T07:22:26.595Z,73.21
2023-04-01T07:25:13.714Z,73.19
2023-04-01T07:27:46.608Z,73.10
2023-04-01T07:30:23.962Z,72.39
2023-04-01T07:33:16.388Z,72.32
2023-04-01T07:36:01.303Z,72.34
2023-04-01T07:39:11.111Z,72.30
2023-04-01T07:42:08.367Z,72.30
2023-04-01T07:44:56.709Z,72.21
2023-04-01T07:47:47.097Z,72.46
2023-04-01T07:50:27.850Z,72.37
2023-04-01T07:53:11.582Z,72.51
2023-04-01T07:55:53.757Z,72.59
2023-04-01T07:58:33.536Z,72.89
2023-04-01T08:01:16.745Z,73.02
2023-04-01T08:03:46.018Z,72.96
2023-04-01T08:06:43.101Z,72.99
2023-04-01T08:09:21.725Z,72.97
2023-04-01T08:12:17.725Z,73.00
2023-04-01T08:15:39.526Z,72.73
2023-04-01T08:18:35.239Z,72.73
2023-04-01T08:21:12.252Z,72.80
2023-04-01T08:23:48.884Z,73.02
2023-04-01T08:26:27.412Z,73.20
2023-04-01T08:29:05.382Z,72.92
2023-04-01T08:31:57.788Z,72.92
2023-04-01T08:34:34.505Z,73.21
2023-04-01T08:37:18.872Z,73.84
2023-04-01T08:40:03.914Z,74.22
2023-04-01T08:42:52.982Z,74.82
2023-04-01T08:45:37.570Z,74.68
2023-04-01T08:48:10.036Z,75.37
2023-04-01T08:50:58.354Z,75.50
2023-04-01T08:53:54.884Z,76.00
2023-04-01T08:56:58.604Z,76.14
2023-04-01T08:59:28.162Z,76.44
2023-04-01T09:02:06.318Z,76.53
2023-04-01T09:05:17.035Z,76.51
2023-04-01T09:08:15.517Z,76.50
2023-04-01T09:11:02.922Z,77.32
2023-04-01T09:14:38.952Z,77.52
2023-04-01T09:17:49.842Z,77.27
2023-04-01T09:20:42.853Z,77.71
2023-04-01T09:23:29.420Z,77.44
2023-04-01T09:26:10.138Z,77.39
2023-04-01T09:29:00.315Z,77.33
2023-04-01T09:32:01.665Z,77.14
2023-04-01T09:34:55.827Z,76.80
2023-04-01T09:38:00.949Z,76.54
2023-04-01T09:41:13.366Z,77.78
2023-04-01T09:44:02.790Z,78.07
2023-04-01T09:46:59.010Z,77.68
2023-04-01T09:49:48.889Z,77.88
2023-04-01T09:52:30.882Z,77.84
2023-04-01T09:55:46.961Z,77.60
2023-04-01T09:58:49.413Z,77.04
2023-04-01T10:01:48.661Z,76.62
2023-04-01T10:04:43.897Z,76.11
2023-04-01T10:07:51.582Z,76.05
2023-04-01T10:10:35.827Z,75.37
2023-04-01T10:13:22.118Z,75.02
2023-04-01T10:16:15.902Z,74.64
2023-04-01T10:19:22.130Z,74.47
2023-04-01T10:22:09.136Z,74.43
2023-04-01T10:25:06.387Z,74.19
2023-04-01T10:28:03.282Z,74.00
2023-04-01T10:31:28.158Z,73.72
2023-04-01T10:34:27.921Z,73.65
2023-04-01T10:37:26.048Z,73.16
2023-04-01T10:40:29.126Z,72.63
2023-04-01T10:44:00.068Z,72.15
2023-04-01T10:46:44.683Z,71.68
2023-04-01T10:49:34.366Z,71.47
2023-04-01T10:52:29.359Z,71.02
2023-04-01T10:55:43.283Z,69.51
2023-04-01T10:58:52.192Z,68.71
2023-04-01T11:02:18.823Z,67.83
2023-04-01T11:05:28.327Z,67.05
2023-04-01T11:08:05.855Z,66.24
2023-04-01T11:10:54.768Z,64.53
2023-04-01T11:13:31.029Z,63.72
2023-04-01T11:16:27.716Z,63.56
2023-04-01T11:19:31.820Z,62.28
2023-04-01T11:22:10.808Z,62.47
2023-04-01T11:25:19.087Z,63.37
2023-04-01T11:28:34.434Z,63.09
2023-04-01T11:31:05.807Z,63.30
2023-04-01T11:34:09.268Z,63.43
2023-04-01T11:37:03.031Z,63.63
2023-04-01T11:39:42.598Z,63.85
2023-04-01T11:42:42.684Z,64.06
2023-04-01T11:45:48.524Z,64.31
2023-04-01T11:48:26.831Z,64.33
2023-04-01T11:51:07.805Z,63.94
2023-04-01T11:53:55.425Z,63.97
2023-04-01T11:56:42.439Z,63.79
2023-04-01T11:59:10.922Z,62.91
2023-04-01T12:01:40.030Z,63.05
2023-04-01T12:04:17.469Z,62.75
2023-04-01T12:07:26.639Z,62.48
2023-04-01T12:10:12.212Z,61.88
2023-04-01T12:13:00.018Z,61.78
2023-04-01T12:15:39.570Z,61.24
2023-04-01T12:18:26.792Z,60.62
2023-04-01T12:21:05.986Z,59.58
2023-04-01T12:23:44.641Z,59.81
2023-04-01T12:27:00.607Z,60.36
2023-04-01T12:29:44.242Z,59.82
2023-04-01T12:32:39.361Z,59.08
2023-04-01T12:35:38.133Z,59.08
2023-04-01T12:38:09.574Z,59.36
2023-04-01T12:41:04.964Z,59.40
2023-04-01T12:44:07.861Z,59.07
2023-04-01T12:47:17.362Z,59.11
2023-04-01T12:50:02.631Z,59.15
2023-04-01T12:52:46.164Z,59.40
2023-04-01T12:55:28.781Z,59.11
2023-04-01T12:58:21.786Z,59.06
2023-04-01T13:01:12.089Z,58.79
2023-04-01T13:04:01.958Z,58.48
2023-04-01T13:06:31.796Z,59.03
2023-04-01T13:09:38.460Z,59.26
2023-04-01T13:12:28.260Z,59.48
2023-04-01T13:15:06.575Z,59.30
2023-04-01T13:17:35.591Z,59.05
2023-04-01T13:20:38.018Z,59.07
2023-04-01T13:23:26.029Z,58.95
2023-04-01T13:26:13.819Z,59.13
2023-04-01T13:29:21.532Z,59.24
2023-04-01T13:32:09.842Z,59.17
2023-04-01T13:34:58.422Z,58.68
2023-04-01T13:37:41.368Z,57.79
2023-04-01T13:40:33.946Z,56.25
2023-04-01T13:43:15.662Z,55.44
2023-04-01T13:45:47.116Z,55.15
2023-04-01T13:48:52.200Z,54.05
2023-04-01T13:51:27.319Z,54.23
2023-04-01T13:54:43.953Z,54.00
2023-04-01T13:57:44.630Z,54.31
2023-04-01T14:00:41.227Z,54.49
2023-04-01T14:03:30.592Z,54.37
2023-04-01T14:06:28.218Z,53.84
2023-04-01T14:09:06.230Z,53.92
2023-04-01T14:11:54.975Z,53.89
2023-04-01T14:14:42.389Z,54.15
2023-04-01T14:17:32.307Z,54.27
2023-04-01T14:20:28.277Z,54.16
2023-04-01T14:23:02.637Z,54.59
2023-04-01T14:25:55.966Z,54.99
2023-04-01T14:28:42.885Z,55.12
2023-04-01T14:31:37.709Z,55.02
2023-04-01T14:34:48.808Z,55.22
2023-04-01T14:37:33.475Z,55.46
2023-04-01T14:40:16.795Z,55.76
2023-04-01T14:42:56.945Z,55.94
2023-04-01T14:45:25.638Z,56.31
2023-04-01T14:48:24.431Z,56.45
2023-04-01T14:50:55.792Z,56.59
2023-04-01T14:53:23.946Z,56.94
2023-04-01T14:56:01.645Z,57.02
2023-04-01T14:58:51.738Z,57.38
2023-04-01T15:01:45.874Z,57.65
2023-04-01T15:04:44.590Z,57.84
2023-04-01T15:07:34.424Z,58.22
2023-04-01T15:10:36.097Z,58.10
2023-04-01T15:13:28.530Z,58.27
2023-04-01T15:16:20.727Z,58.45
2023-04-01T15:19:17.378Z,58.53
2023-04-01T15:22:08.052Z,58.68
2023-04-01T15:24:57.640Z,59.10
2023-04-01T15:27:28.889Z,59.18
2023-04-01T15:30:19.560Z,59.54
2023-04-01T15:33:10.071Z,59.72
2023-04-01T15:35:45.174Z,60.05
2023-04-01T15:38:22.744Z,60.18
2023-04-01T15:41:05.724Z,60.65
2023-04-01T15:43:53.452Z,60.56
2023-04-01T15:46:37.636Z,60.54
2023-04-01T15:49:06.502Z,60.50
2023-04-01T15:51:50.864Z,60.73
2023-04-01T15:54:40.099Z,60.92
2023-04-01T15:57:34.453Z,61.19
2023-04-01T16:00:08.792Z,62.43
2023-04-01T16:02:49.127Z,62.63
2023-04-01T16:05:51.508Z,62.87
2023-04-01T16:08:58.167Z,63.12
2023-04-01T16:11:42.113Z,63.47
2023-04-01T16:14:34.539Z,63.52
2023-04-01T16:17:47.182Z,63.53
2023-04-01T16:20:27.683Z,63.48
2023-04-01T16:23:30.461Z,63.71
2023-04-01T16:26:47.858Z,63.56
2023-04-01T16:29:16.456Z,63.80
2023-04-01T16:31:59.009Z,63.59
2023-04-01T16:34:44.950Z,63.75
2023-04-01T16:37:33.891Z,63.77
2023-04-01T16:40:24.174Z,63.79
2023-04-01T16:42:57.375Z,64.15
2023-04-01T16:45:25.865Z,64.10
2023-04-01T16:47:59.171Z,64.19
2023-04-01T16:50:47.906Z,64.64
2023-04-01T16:53:23.040Z,64.66
2023-04-01T16:56:01.917Z,64.99
2023-04-01T16:58:56.758Z,65.02
2023-04-01T17:02:07.920Z,65.33
2023-04-01T17:05:09.158Z,65.65
2023-04-01T17:08:07.827Z,65.34
2023-04-01T17:10:36.413Z,65.52
2023-04-01T17:13:05.638Z,65.52
2023-04-01T17:15:48.627Z,65.88
2023-04-01T17:18:20.202Z,65.89
2023-04-01T17:21:03.423Z,65.94
2023-04-01T17:24:07.522Z,66.54
2023-04-01T17:26:47.676Z,68.14
2023-04-01T17:29:44.319Z,69.37
2023-04-01T17:32:51.886Z,70.25
2023-04-01T17:35:32.685Z,70.62
2023-04-01T17:38:27.639Z,71.46
2023-04-01T17:41:07.277Z,72.07
2023-04-01T17:43:51.425Z,72.00
2023-04-01T17:46:38.297Z,72.88
2023-04-01T17:49:37.008Z,72.90
2023-04-01T17:52:37.950Z,73.25
2023-04-01T17:55:06.621Z,73.66
2023-04-01T17:57:47.806Z,73.60
2023-04-01T18:00:54.955Z,74.12
2023-04-01T18:03:42.392Z,74.25
2023-04-01T18:06:33.825Z,74.66
2023-04-01T18:09:26.849Z,74.64
2023-04-01T18:12:03.926Z,75.17
2023-04-01T18:14:47.562Z,75.23
2023-04-01T18:17:22.786Z,75.77
2023-04-01T18:19:59.991Z,75.57
2023-04-01T18:22:31.354Z,76.05
2023-04-01T18:25:26.535Z,75.69
2023-04-01T18:28:22.243Z,75.62
2023-04-01T18:31:07.062Z,75.40
2023-04-01T18:33:37.538Z,75.23
2023-04-01T18:36:27.936Z,75.40
2023-04-01T18:39:11.451Z,75.20
2023-04-01T18:42:01.324Z,75.03
2023-04-01T18:44:53.544Z,75.02
2023-04-01T18:47:56.301Z,74.99
2023-04-01T18:51:15.955Z,75.21
2023-04-01T18:53:57.061Z,75.28
2023-04-01T18:56:46.014Z,75.12
2023-04-01T18:59:30.269Z,74.94
2023-04-01T19:02:29.011Z,74.93
2023-04-01T19:05:19.725Z,75.06
2023-04-01T19:07:51.245Z,74.92
2023-04-01T19:10:42.119Z,75.41
2023-04-01T19:13:29.500Z,76.18
2023-04-01T19:16:08.847Z,76.78
2023-04-01T19:19:12.737Z,77.05
2023-04-01T19:21:49.095Z,77.51
2023-04-01T19:24:25.551Z,77.93
2023-04-01T19:27:19.438Z,78.22
2023-04-01T19:29:57.014Z,78.41
2023-04-01T19:33:04.219Z,78.72
2023-04-01T19:36:03.410Z,78.63
2023-04-01T19:38:36.774Z,79.68
2023-04-01T19:41:38.101Z,80.01
2023-04-01T19:44:34.534Z,80.19
2023-04-01T19:47:24.425Z,80.74
2023-04-01T19:50:38.229Z,80.72
2023-04-01T19:53:41.918Z,80.88
2023-04-01T19:56:24.940Z,80.79
2023-04-01T19:59:19.056Z,80.91
2023-04-01T20:01:59.418Z,81.26
2023-04-01T20:04:52.017Z,81.88
2023-04-01T20:07:31.983Z,81.95
2023-04-01T20:10:06.883Z,82.31
2023-04-01T20:12:54.403Z,82.16
2023-04-01T20:15:37.830Z,82.01
2023-04-01T20:18:33.941Z,81.89
2023-04-01T20:21:22.611Z,81.68
2023-04-01T20:24:36.514Z,81.41
2023-04-01T20:27:28.128Z,81.25
2023-04-01T20:30:01.745Z,81.23
2023-04-01T20:32:53.418Z,81.40
2023-04-01T20:35:51.431Z,80.75
2023-04-01T20:38:29.716Z,81.00
2023-04-01T20:41:13.061Z,81.20
2023-04-01T20:44:12.256Z,81.27
2023-04-01T20:46:47.554Z,81.44
2023-04-01T20:49:31.841Z,80.84
2023-04-01T20:52:30.815Z,80.67
2023-04-01T20:55:08.194Z,80.80
2023-04-01T20:57:56.950Z,80.59
2023-04-01T21:00:56.821Z,80.75
2023-04-01T21:03:35.543Z,81.06
2023-04-01T21:06:19.112Z,80.95
2023-04-01T21:09:06.631Z,80.67
2023-04-01T21:11:54.881Z,80.34
2023-04-01T21:14:51.797Z,80.10
2023-04-01T21:17:26.756Z,80.33
2023-04-01T21:20:07.696Z,80.07
2023-04-01T21:22:51.539Z,80.05
2023-04-01T21:25:30.617Z,80.38
2023-04-01T21:28:30.775Z,80.62
2023-04-01T21:31:18.749Z,80.86
2023-04-01T21:34:06.753Z,81.01
2023-04-01T21:36:41.474Z,80.59
2023-04-01T21:39:28.290Z,80.75
2023-04-01T21:42:21.623Z,81.01
2023-04-01T21:45:17.652Z,80.76
2023-04-01T21:48:33.816Z,80.54
2023-04-01T21:51:08.030Z,80.37
2023-04-01T21:53:55.352Z,80.21
2023-04-01T21:56:42.460Z,80.78
2023-04-01T21:59:25.789Z,81.06
2023-04-01T22:01:54.504Z,80.90
2023-04-01T22:05:14.150Z,81.74
2023-04-01T22:07:57.460Z,81.68
2023-04-01T22:10:42.417Z,81.44
2023-04-01T22:13:34.549Z,81.29
2023-04-01T22:16:06.862Z,81.37
2023-04-01T22:18:41.572Z,81.53
2023-04-01T22:21:22.586Z,81.58
2023-04-01T22:24:08.193Z,81.26
2023-04-01T22:26:50.919Z,81.03
2023-04-01T22:29:45.483Z,80.97
2023-04-01T22:32:20.792Z,80.98
2023-04-01T22:35:02.120Z,81.12
2023-04-01T22:38:07.546Z,81.23
2023-04-01T22:40:48.986Z,81.51
2023-04-01T22:43:48.525Z,81.65
2023-04-01T22:46:42.559Z,81.96
2023-04-01T22:49:25.868Z,81.89
2023-04-01T22:52:07.003Z,82.40
2023-04-01T22:54:49.568Z,83.37
2023-04-01T22:57:49.393Z,83.17
2023-04-01T23:00:36.819Z,83.21
2023-04-01T23:03:28.434Z,83.33
2023-04-01T23:05:59.759Z,83.26
2023-04-01T23:08:56.995Z,83.44
2023-04-01T23:11:32.362Z,83.23
2023-04-01T23:14:19.584Z,83.70
2023-04-01T23:17:05.989Z,83.80
2023-04-01T23:20:13.772Z,83.71
2023-04-01T23:23:04.455Z,84.75
2023-04-01T23:25:33.250Z,84.75
2023-04-01T23:28:13.914Z,85.36
2023-04-01T23:30:42.767Z,84.99
2023-04-01T23:33:21.734Z,84.84
2023-04-01T23:35:53.222Z,84.69
2023-04-01T23:38:25.518Z,84.45
2023-04-01T23:40:56.122Z,84.59
2023-04-01T23:43:43.718Z,84.34
2023-04-01T23:46:14.451Z,84.06
2023-04-01T23:48:47.808Z,84.75
2023-04-01T23:51:19.210Z,84.64
2023-04-01T23:53:56.211Z,84.48
2023-04-01T23:56:33.120Z,84.51
2023-04-01T23:59:04.277Z,84.37
